Time;durP1;ratioP1;P1;durP2;ratioP2;P2;SDS_P1;SDS_P2;PMS_P1;PMS_P2;Temp;Humidity;BMP_temperature;BMP_pressure;BME280_temperature;BME280_humidity;BME280_pressure;Samples;Min_cycle;Max_cycle;Signal;HPM_P1;HPM_P2
2023/08/09 00:01:23;;;;;;;;;0.00;0.00;;;;;;;;4846690;29;45198;-65
2023/08/09 00:03:49;;;;;;;;;1.00;1.00;;;;;;;;4846307;29;45327;-65
2023/08/09 00:06:15;;;;;;;;;0.75;0.75;;;;;;;;4846078;29;47032;-65
2023/08/09 00:08:40;;;;;;;;;0.75;0.75;;;;;;;;4845915;29;45454;-65
2023/08/09 00:11:06;;;;;;;;;0.50;0.00;;;;;;;;4846503;29;45336;-65
2023/08/09 00:13:31;;;;;;;;;2.00;0.25;;;;;;;;4846025;29;45454;-65
2023/08/09 00:15:56;;;;;;;;;1.00;0.00;;;;;;;;4846216;29;45461;-65
2023/08/09 00:18:21;;;;;;;;;6.00;5.25;;;;;;;;4845955;29;45350;-65
2023/08/09 00:20:46;;;;;;;;;2.00;0.00;;;;;;;;4846299;29;45311;-65
2023/08/09 00:23:13;;;;;;;;;0.75;0.75;;;;;;;;4845881;29;45368;-65
2023/08/09 00:25:39;;;;;;;;;2.00;0.00;;;;;;;;4846125;29;46728;-65
2023/08/09 00:28:04;;;;;;;;;0.00;0.00;;;;;;;;4846134;29;45335;-65
2023/08/09 00:30:29;;;;;;;;;2.00;0.00;;;;;;;;4845913;29;45267;-65
2023/08/09 00:32:55;;;;;;;;;2.00;0.00;;;;;;;;4846245;29;45410;-65
2023/08/09 00:35:20;;;;;;;;;1.25;0.50;;;;;;;;4844299;29;46457;-65
2023/08/09 00:37:45;;;;;;;;;4.00;3.25;;;;;;;;4845841;29;45252;-65
2023/08/09 00:40:13;;;;;;;;;0.00;0.00;;;;;;;;4846108;29;45309;-65
2023/08/09 00:42:39;;;;;;;;;0.00;0.00;;;;;;;;4845927;29;45598;-65
2023/08/09 00:45:05;;;;;;;;;1.00;1.00;;;;;;;;4845357;29;45643;-65
2023/08/09 00:47:32;;;;;;;;;0.00;0.00;;;;;;;;4845621;29;45435;-65
2023/08/09 00:49:57;;;;;;;;;0.00;0.00;;;;;;;;4845830;29;45376;-64
2023/08/09 00:52:24;;;;;;;;;1.00;0.00;;;;;;;;4845826;29;45342;-64
2023/08/09 00:54:49;;;;;;;;;0.00;0.00;;;;;;;;4845166;29;45579;-64
2023/08/09 00:57:15;;;;;;;;;1.00;1.00;;;;;;;;4845736;29;45455;-64
2023/08/09 00:59:40;;;;;;;;;1.50;0.00;;;;;;;;4845859;29;45268;-64
2023/08/09 01:02:08;;;;;;;;;0.00;0.00;;;;;;;;4845788;29;45450;-64
2023/08/09 01:04:33;;;;;;;;;0.50;0.50;;;;;;;;4845253;29;45628;-64
2023/08/09 01:07:06;;;;;;;;;0.50;0.50;;;;;;;;4844971;29;45255;-64
2023/08/09 01:09:46;;;;;;;;;1.50;0.00;;;;;;;;4845482;29;45441;-64
2023/08/09 01:12:14;;;;;;;;;1.00;0.00;;;;;;;;4845700;29;45330;-64
2023/08/09 01:14:43;;;;;;;;;2.00;0.25;;;;;;;;4845162;29;46666;-64
2023/08/09 01:17:12;;;;;;;;;0.75;0.75;;;;;;;;4844821;29;45283;-64
2023/08/09 01:19:41;;;;;;;;;0.00;0.00;;;;;;;;4845360;29;45384;-64
2023/08/09 01:22:13;;;;;;;;;4.00;1.75;;;;;;;;4845455;29;45229;-64
2023/08/09 01:24:39;;;;;;;;;0.50;0.50;;;;;;;;4844892;29;47196;-64
2023/08/09 01:27:04;;;;;;;;;1.00;1.00;;;;;;;;4844841;29;45357;-64
2023/08/09 01:29:30;;;;;;;;;0.50;0.50;;;;;;;;4845300;29;45523;-63
2023/08/09 01:31:55;;;;;;;;;1.00;0.00;;;;;;;;4845358;29;45259;-64
2023/08/09 01:34:20;;;;;;;;;1.00;1.00;;;;;;;;4844934;29;46355;-64
2023/08/09 01:36:47;;;;;;;;;0.00;0.00;;;;;;;;4844540;29;45647;-64
2023/08/09 01:39:16;;;;;;;;;3.25;1.00;;;;;;;;4845163;29;45342;-63
2023/08/09 01:41:43;;;;;;;;;1.00;1.00;;;;;;;;4845172;29;45525;-64
2023/08/09 01:44:09;;;;;;;;;1.00;0.75;;;;;;;;4844689;29;46363;-64
2023/08/09 01:46:35;;;;;;;;;0.00;0.00;;;;;;;;4844501;29;45360;-64
2023/08/09 01:49:26;;;;;;;;;1.00;1.00;;;;;;;;4844515;29;45673;-63
2023/08/09 01:51:52;;;;;;;;;1.75;1.00;;;;;;;;4841383;29;45592;-64
2023/08/09 01:54:17;;;;;;;;;1.00;1.00;;;;;;;;4844717;29;45601;-64
2023/08/09 01:56:43;;;;;;;;;1.00;1.00;;;;;;;;4844749;29;45419;-64
2023/08/09 01:59:09;;;;;;;;;2.00;0.00;;;;;;;;4844370;29;45422;-64
2023/08/09 02:01:34;;;;;;;;;2.00;1.00;;;;;;;;4844902;29;45475;-64
2023/08/09 02:03:59;;;;;;;;;2.00;2.00;;;;;;;;4844432;29;46755;-64
2023/08/09 02:06:25;;;;;;;;;1.00;1.00;;;;;;;;4844842;29;45456;-64
2023/08/09 02:08:50;;;;;;;;;0.00;0.00;;;;;;;;4844103;29;45307;-64
2023/08/09 02:11:15;;;;;;;;;2.25;1.25;;;;;;;;4844932;29;45397;-64
2023/08/09 02:13:40;;;;;;;;;1.00;1.00;;;;;;;;4844751;29;46330;-64
2023/08/09 02:16:06;;;;;;;;;2.00;2.00;;;;;;;;4844422;29;45392;-64
2023/08/09 02:18:34;;;;;;;;;2.50;1.25;;;;;;;;4844185;29;45277;-64
2023/08/09 02:21:00;;;;;;;;;1.00;1.00;;;;;;;;4844623;29;45453;-64
2023/08/09 02:23:25;;;;;;;;;1.50;1.25;;;;;;;;4844252;29;46545;-64
2023/08/09 02:25:54;;;;;;;;;0.25;0.25;;;;;;;;4844609;29;45317;-64
2023/08/09 02:28:19;;;;;;;;;1.00;1.00;;;;;;;;4844368;29;45375;-64
2023/08/09 02:30:45;;;;;;;;;1.00;1.00;;;;;;;;4844107;29;45366;-64
2023/08/09 02:33:11;;;;;;;;;1.00;1.00;;;;;;;;4844211;29;45301;-64
2023/08/09 02:35:50;;;;;;;;;1.00;1.00;;;;;;;;4844221;29;45348;-64
2023/08/09 02:38:15;;;;;;;;;2.00;0.75;;;;;;;;4844477;29;45461;-64
2023/08/09 02:40:41;;;;;;;;;1.00;1.00;;;;;;;;4844226;29;45368;-64
2023/08/09 02:43:06;;;;;;;;;1.00;1.00;;;;;;;;4844002;29;46515;-64
2023/08/09 02:45:31;;;;;;;;;0.50;0.50;;;;;;;;4844209;29;45335;-64
2023/08/09 02:47:57;;;;;;;;;1.25;1.25;;;;;;;;4844330;29;45353;-64
2023/08/09 02:50:22;;;;;;;;;2.00;1.00;;;;;;;;4843623;29;45348;-64
2023/08/09 02:52:49;;;;;;;;;0.00;0.00;;;;;;;;4844222;29;45487;-64
2023/08/09 02:55:15;;;;;;;;;2.00;2.00;;;;;;;;4844192;29;45310;-64
2023/08/09 02:57:40;;;;;;;;;2.50;1.00;;;;;;;;4845085;29;45289;-64
2023/08/09 03:00:06;;;;;;;;;2.00;1.00;;;;;;;;4847582;29;45528;-64
2023/08/09 03:02:32;;;;;;;;;0.75;0.75;;;;;;;;4846367;29;47239;-64
2023/08/09 03:04:59;;;;;;;;;2.25;2.25;;;;;;;;4847256;29;45420;-64
2023/08/09 03:07:25;;;;;;;;;1.25;1.25;;;;;;;;4847181;29;45530;-64
2023/08/09 03:09:50;;;;;;;;;0.50;0.50;;;;;;;;4847722;29;45523;-64
2023/08/09 03:12:15;;;;;;;;;1.50;1.00;;;;;;;;4846566;29;46288;-64
2023/08/09 03:14:40;;;;;;;;;2.00;2.00;;;;;;;;4847002;29;45431;-64
2023/08/09 03:17:05;;;;;;;;;3.00;1.00;;;;;;;;4847354;29;45414;-64
2023/08/09 03:19:31;;;;;;;;;2.25;2.25;;;;;;;;4847116;29;45153;-64
2023/08/09 03:21:56;;;;;;;;;4.25;1.75;;;;;;;;4846343;29;46131;-64
2023/08/09 03:24:21;;;;;;;;;3.50;2.00;;;;;;;;4846827;29;45615;-64
2023/08/09 03:26:46;;;;;;;;;2.00;2.00;;;;;;;;4846938;29;45367;-64
2023/08/09 03:29:11;;;;;;;;;2.75;2.00;;;;;;;;4847290;29;45359;-64
2023/08/09 03:31:37;;;;;;;;;4.00;4.00;;;;;;;;4846780;29;46564;-64
2023/08/09 03:34:02;;;;;;;;;0.75;0.75;;;;;;;;4846436;29;45410;-64
2023/08/09 03:36:27;;;;;;;;;3.75;3.75;;;;;;;;4846718;29;45427;-64
2023/08/09 03:38:52;;;;;;;;;5.50;5.00;;;;;;;;4846775;29;45561;-64
2023/08/09 03:41:18;;;;;;;;;10.00;8.50;;;;;;;;4845185;29;46580;-64
2023/08/09 03:43:43;;;;;;;;;6.50;4.25;;;;;;;;4846170;29;45325;-64
2023/08/09 03:46:08;;;;;;;;;8.50;5.00;;;;;;;;4846763;29;45456;-64
2023/08/09 03:48:34;;;;;;;;;6.75;5.25;;;;;;;;4846674;29;45543;-63
2023/08/09 03:50:59;;;;;;;;;8.50;7.00;;;;;;;;4846580;29;45476;-64
2023/08/09 03:53:24;;;;;;;;;6.75;5.00;;;;;;;;4845918;29;45497;-64
2023/08/09 03:55:50;;;;;;;;;4.25;4.25;;;;;;;;4846551;29;45432;-64
2023/08/09 03:58:16;;;;;;;;;7.50;7.50;;;;;;;;4846659;29;45469;-64
2023/08/09 04:00:42;;;;;;;;;4.50;4.50;;;;;;;;4846178;29;46772;-64
2023/08/09 04:03:07;;;;;;;;;5.25;5.25;;;;;;;;4846294;29;45383;-64
2023/08/09 04:05:34;;;;;;;;;5.75;3.75;;;;;;;;4845922;29;45373;-64
2023/08/09 04:08:01;;;;;;;;;5.25;4.50;;;;;;;;4846200;29;45300;-64
2023/08/09 04:10:26;;;;;;;;;6.00;3.50;;;;;;;;4845864;29;47105;-64
2023/08/09 04:12:51;;;;;;;;;5.50;4.00;;;;;;;;4846150;29;45316;-64
2023/08/09 04:15:17;;;;;;;;;5.50;4.00;;;;;;;;4845989;29;45438;-64
2023/08/09 04:17:42;;;;;;;;;7.00;4.00;;;;;;;;4846507;29;45421;-64
2023/08/09 04:20:09;;;;;;;;;5.00;5.00;;;;;;;;4845928;29;46677;-64
2023/08/09 04:22:35;;;;;;;;;6.00;6.00;;;;;;;;4845859;29;45402;-64
2023/08/09 04:25:00;;;;;;;;;5.75;4.50;;;;;;;;4845729;29;45519;-64
2023/08/09 04:27:25;;;;;;;;;6.00;6.00;;;;;;;;4829734;29;45515;-64
2023/08/09 04:29:51;;;;;;;;;8.75;7.00;;;;;;;;4845867;29;45615;-64
2023/08/09 04:32:16;;;;;;;;;8.50;7.00;;;;;;;;4845941;29;45347;-64
2023/08/09 04:34:41;;;;;;;;;4.75;4.75;;;;;;;;4845712;29;45596;-64
2023/08/09 04:37:06;;;;;;;;;7.75;6.25;;;;;;;;4845835;29;45364;-64
2023/08/09 04:39:32;;;;;;;;;8.50;6.50;;;;;;;;4845639;29;46791;-64
2023/08/09 04:41:57;;;;;;;;;8.75;6.25;;;;;;;;4845708;29;45411;-64
2023/08/09 04:44:22;;;;;;;;;4.50;4.25;;;;;;;;4845820;29;45354;-64
2023/08/09 04:46:47;;;;;;;;;5.75;4.25;;;;;;;;4845446;29;45455;-64
2023/08/09 04:49:13;;;;;;;;;6.00;6.00;;;;;;;;4845521;29;45505;-64
2023/08/09 04:51:38;;;;;;;;;9.75;7.25;;;;;;;;4845783;29;45778;-64
2023/08/09 04:54:03;;;;;;;;;9.00;6.00;;;;;;;;4845742;29;45332;-64
2023/08/09 04:56:28;;;;;;;;;6.00;6.00;;;;;;;;4845244;29;45366;-64
2023/08/09 04:58:53;;;;;;;;;7.33;7.00;;;;;;;;4845567;29;45434;-63
2023/08/09 05:01:19;;;;;;;;;8.25;8.25;;;;;;;;4845433;29;45501;-64
2023/08/09 05:03:44;;;;;;;;;11.00;9.33;;;;;;;;4845693;29;45202;-64
2023/08/09 05:06:09;;;;;;;;;9.33;8.00;;;;;;;;4845545;29;45521;-64
2023/08/09 05:08:34;;;;;;;;;9.75;7.50;;;;;;;;4844605;29;45418;-64
2023/08/09 05:11:00;;;;;;;;;11.00;9.33;;;;;;;;4845537;29;45333;-64
2023/08/09 05:13:25;;;;;;;;;11.75;10.75;;;;;;;;4845581;29;45227;-64
2023/08/09 05:15:51;;;;;;;;;13.00;12.33;;;;;;;;4845686;29;45531;-64
2023/08/09 05:18:16;;;;;;;;;14.00;11.00;;;;;;;;4844670;29;45453;-64
2023/08/09 05:20:41;;;;;;;;;11.00;9.00;;;;;;;;4844184;29;45453;-64
2023/08/09 05:23:06;;;;;;;;;7.33;7.33;;;;;;;;4845234;29;45315;-64
2023/08/09 05:25:31;;;;;;;;;11.67;8.00;;;;;;;;4845538;29;45247;-64
2023/08/09 05:27:57;;;;;;;;;9.67;8.67;;;;;;;;4844641;29;46491;-64
2023/08/09 05:30:22;;;;;;;;;9.33;9.33;;;;;;;;4844923;29;45354;-64
2023/08/09 05:32:48;;;;;;;;;12.33;10.00;;;;;;;;4845114;29;45380;-64
2023/08/09 05:35:14;;;;;;;;;12.00;9.33;;;;;;;;4845062;29;45472;-64
2023/08/09 05:37:39;;;;;;;;;16.00;10.00;;;;;;;;4844926;29;45410;-64
2023/08/09 05:40:09;;;;;;;;;12.00;10.33;;;;;;;;4844452;29;45447;-64
2023/08/09 05:42:34;;;;;;;;;12.33;10.67;;;;;;;;4844579;29;45378;-64
2023/08/09 05:44:59;;;;;;;;;13.00;11.00;;;;;;;;4845228;29;45348;-64
2023/08/09 05:47:25;;;;;;;;;11.67;10.33;;;;;;;;4844833;29;46470;-64
2023/08/09 05:49:50;;;;;;;;;13.67;11.00;;;;;;;;4844051;29;45372;-64
2023/08/09 05:52:15;;;;;;;;;11.00;9.00;;;;;;;;4844939;29;45288;-64
2023/08/09 05:54:40;;;;;;;;;10.00;7.00;;;;;;;;4845012;29;45302;-64
2023/08/09 05:57:06;;;;;;;;;6.00;6.00;;;;;;;;4844678;29;47396;-64
2023/08/09 05:59:31;;;;;;;;;9.25;8.00;;;;;;;;4844159;29;45409;-64
2023/08/09 06:01:56;;;;;;;;;10.33;7.67;;;;;;;;4844800;29;45356;-64
2023/08/09 06:04:22;;;;;;;;;8.75;6.25;;;;;;;;4844837;29;45558;-64
2023/08/09 06:06:47;;;;;;;;;5.75;5.75;;;;;;;;4844332;29;47048;-64
2023/08/09 06:09:12;;;;;;;;;8.50;6.75;;;;;;;;4844531;29;45236;-64
2023/08/09 06:11:38;;;;;;;;;7.00;6.50;;;;;;;;4844186;29;45314;-64
2023/08/09 06:14:03;;;;;;;;;5.00;5.00;;;;;;;;4844716;29;45793;-64
2023/08/09 06:16:29;;;;;;;;;9.00;6.33;;;;;;;;4844196;29;47350;-64
2023/08/09 06:18:54;;;;;;;;;11.00;8.00;;;;;;;;4844364;29;45546;-64
2023/08/09 06:21:19;;;;;;;;;9.00;8.00;;;;;;;;4844157;29;45443;-64
2023/08/09 06:23:44;;;;;;;;;7.25;4.75;;;;;;;;4844756;29;45562;-64
2023/08/09 06:26:09;;;;;;;;;11.33;10.33;;;;;;;;4844187;29;46206;-63
2023/08/09 06:28:35;;;;;;;;;10.67;7.00;;;;;;;;4844299;29;45527;-64
2023/08/09 06:31:00;;;;;;;;;11.33;8.00;;;;;;;;4844055;29;45428;-63
2023/08/09 06:33:25;;;;;;;;;9.75;7.25;;;;;;;;4848050;29;45425;-63
2023/08/09 06:35:51;;;;;;;;;7.00;7.00;;;;;;;;4847332;29;46337;-63
2023/08/09 06:38:16;;;;;;;;;4.00;4.00;;;;;;;;4847615;29;45331;-63
2023/08/09 06:40:41;;;;;;;;;8.00;6.00;;;;;;;;4847592;29;45336;-65
2023/08/09 06:43:07;;;;;;;;;5.67;5.67;;;;;;;;4847223;29;45224;-63
2023/08/09 06:45:33;;;;;;;;;5.00;5.00;;;;;;;;4847455;29;46305;-63
2023/08/09 06:47:59;;;;;;;;;9.33;7.67;;;;;;;;4847351;29;45361;-63
2023/08/09 06:50:24;;;;;;;;;7.50;7.50;;;;;;;;4847037;29;45312;-64
2023/08/09 06:52:49;;;;;;;;;11.33;7.33;;;;;;;;4847222;29;45385;-64
2023/08/09 06:55:14;;;;;;;;;11.00;8.67;;;;;;;;4847403;29;45389;-64
2023/08/09 06:57:40;;;;;;;;;6.67;6.67;;;;;;;;4847565;29;45163;-64
2023/08/09 07:00:05;;;;;;;;;10.00;8.00;;;;;;;;4847414;29;45254;-64
2023/08/09 07:02:33;;;;;;;;;11.33;8.67;;;;;;;;4846792;29;45382;-63
2023/08/09 07:05:00;;;;;;;;;8.00;8.00;;;;;;;;4847217;29;46429;-64
2023/08/09 07:07:25;;;;;;;;;7.00;7.00;;;;;;;;4846905;29;45326;-64
2023/08/09 07:09:52;;;;;;;;;9.33;7.33;;;;;;;;4846039;29;45303;-64
2023/08/09 07:12:17;;;;;;;;;11.00;6.67;;;;;;;;4847079;29;45404;-64
2023/08/09 07:14:42;;;;;;;;;11.00;9.67;;;;;;;;4846491;29;46452;-63
2023/08/09 07:17:09;;;;;;;;;9.00;9.00;;;;;;;;4847221;29;45343;-64
2023/08/09 07:19:34;;;;;;;;;11.67;7.33;;;;;;;;4847185;29;45407;-63
2023/08/09 07:21:59;;;;;;;;;9.67;9.00;;;;;;;;4846959;29;45208;-64
2023/08/09 07:24:24;;;;;;;;;8.00;8.00;;;;;;;;4846214;29;45529;-63
2023/08/09 07:26:50;;;;;;;;;8.00;6.00;;;;;;;;4846816;29;45349;-64
2023/08/09 07:29:15;;;;;;;;;6.67;6.67;;;;;;;;4847070;29;45430;-64
2023/08/09 07:31:40;;;;;;;;;4.33;4.33;;;;;;;;4846977;29;45305;-64
2023/08/09 07:34:05;;;;;;;;;7.67;7.00;;;;;;;;4846462;29;46435;-63
2023/08/09 07:36:30;;;;;;;;;7.33;7.33;;;;;;;;4846469;29;45408;-63
2023/08/09 07:38:57;;;;;;;;;7.67;7.33;;;;;;;;4846819;29;45413;-63
2023/08/09 07:41:22;;;;;;;;;10.33;6.67;;;;;;;;4844254;29;45440;-61
2023/08/09 07:43:48;;;;;;;;;8.00;8.00;;;;;;;;4845419;29;47289;-61
2023/08/09 07:46:13;;;;;;;;;9.00;7.33;;;;;;;;4845791;29;45301;-63
2023/08/09 07:48:38;;;;;;;;;4.50;4.50;;;;;;;;4846525;29;45501;-63
2023/08/09 07:51:03;;;;;;;;;6.50;6.50;;;;;;;;4846268;29;45451;-65
2023/08/09 07:53:29;;;;;;;;;7.00;6.33;;;;;;;;4846482;29;45762;-61
2023/08/09 07:55:54;;;;;;;;;6.00;6.00;;;;;;;;4845409;29;45394;-62
2023/08/09 07:58:20;;;;;;;;;6.00;6.00;;;;;;;;4846218;29;45328;-62
2023/08/09 08:00:45;;;;;;;;;5.00;5.00;;;;;;;;4846312;29;45536;-61
2023/08/09 08:03:11;;;;;;;;;3.00;3.00;;;;;;;;4845638;29;45411;-63
2023/08/09 08:05:39;;;;;;;;;4.00;4.00;;;;;;;;4845654;29;45491;-63
2023/08/09 08:08:04;;;;;;;;;3.33;3.33;;;;;;;;4845976;29;45305;-64
2023/08/09 08:10:29;;;;;;;;;6.00;5.00;;;;;;;;4845850;29;45413;-64
2023/08/09 08:12:55;;;;;;;;;4.00;4.00;;;;;;;;4845931;29;45439;-63
2023/08/09 08:15:22;;;;;;;;;5.00;4.00;;;;;;;;4845555;29;45432;-62
2023/08/09 08:17:50;;;;;;;;;4.00;3.00;;;;;;;;4845850;29;45320;-61
2023/08/09 08:20:15;;;;;;;;;5.67;4.33;;;;;;;;4845903;29;45291;-62
2023/08/09 08:22:44;;;;;;;;;8.00;6.00;;;;;;;;4845500;29;46558;-64
2023/08/09 08:25:10;;;;;;;;;4.00;4.00;;;;;;;;4845518;29;45510;-65
2023/08/09 08:27:36;;;;;;;;;7.00;4.67;;;;;;;;4845247;29;45324;-64
2023/08/09 08:30:04;;;;;;;;;3.00;3.00;;;;;;;;4845982;29;45779;-64
2023/08/09 08:32:29;;;;;;;;;2.75;2.75;;;;;;;;4845606;29;46390;-64
2023/08/09 08:34:56;;;;;;;;;4.00;2.00;;;;;;;;4845927;29;45454;-65
2023/08/09 08:37:22;;;;;;;;;0.67;0.33;;;;;;;;4845605;29;45344;-64
2023/08/09 08:39:47;;;;;;;;;5.00;3.75;;;;;;;;4845960;29;45168;-64
2023/08/09 08:42:12;;;;;;;;;6.00;2.00;;;;;;;;4845666;29;45268;-64
2023/08/09 08:44:38;;;;;;;;;2.00;2.00;;;;;;;;4845568;29;45363;-65
2023/08/09 08:47:04;;;;;;;;;4.50;2.25;;;;;;;;4845561;29;45399;-65
2023/08/09 08:49:31;;;;;;;;;1.25;1.25;;;;;;;;4845728;29;45436;-65
2023/08/09 08:51:58;;;;;;;;;2.25;1.25;;;;;;;;4845288;29;45860;-64
2023/08/09 08:54:23;;;;;;;;;3.00;2.00;;;;;;;;4845197;29;45332;-65
2023/08/09 08:56:49;;;;;;;;;1.50;1.50;;;;;;;;4841955;29;45683;-64
2023/08/09 08:59:15;;;;;;;;;2.00;2.00;;;;;;;;4844886;29;45416;-63
2023/08/09 09:01:42;;;;;;;;;1.75;1.75;;;;;;;;4844938;29;46521;-61
2023/08/09 09:04:08;;;;;;;;;3.00;3.00;;;;;;;;4844835;29;45358;-63
2023/08/09 09:06:33;;;;;;;;;2.00;2.00;;;;;;;;4843953;29;45476;-62
2023/08/09 09:08:59;;;;;;;;;0.75;0.75;;;;;;;;4844500;29;45498;-63
2023/08/09 09:11:25;;;;;;;;;2.75;2.75;;;;;;;;4844399;29;47118;-63
2023/08/09 09:13:50;;;;;;;;;1.50;0.25;;;;;;;;4844960;29;45313;-62
2023/08/09 09:16:17;;;;;;;;;2.00;2.00;;;;;;;;4844812;29;46464;-62
2023/08/09 09:18:44;;;;;;;;;2.00;2.00;;;;;;;;4844827;29;45383;-63
2023/08/09 09:21:10;;;;;;;;;3.00;2.00;;;;;;;;4844638;29;47423;-63
2023/08/09 09:23:36;;;;;;;;;32.33;28.00;;;;;;;;4844778;29;45606;-62
2023/08/09 09:26:07;;;;;;;;;2.00;2.00;;;;;;;;4844694;29;45464;-60
2023/08/09 09:28:41;;;;;;;;;2.50;2.25;;;;;;;;4844823;29;45596;-61
2023/08/09 09:31:07;;;;;;;;;17.67;17.67;;;;;;;;4843577;29;46681;-60
2023/08/09 09:33:33;;;;;;;;;7.00;4.00;;;;;;;;4844493;29;45443;-59
2023/08/09 09:35:58;;;;;;;;;2.67;2.67;;;;;;;;4844600;29;45315;-61
2023/08/09 09:38:24;;;;;;;;;4.00;4.00;;;;;;;;4845076;29;45373;-65
2023/08/09 09:40:49;;;;;;;;;6.33;4.00;;;;;;;;4843759;29;45568;-59
2023/08/09 09:43:15;;;;;;;;;3.00;3.00;;;;;;;;4844553;29;45541;-64
2023/08/09 09:45:41;;;;;;;;;3.67;3.33;;;;;;;;4844905;29;45400;-64
2023/08/09 09:48:16;;;;;;;;;2.33;2.33;;;;;;;;4844427;29;45917;-63
2023/08/09 09:50:42;;;;;;;;;6.00;5.33;;;;;;;;4843456;29;46707;-64
2023/08/09 09:53:08;;;;;;;;;8.33;7.67;;;;;;;;4842660;29;45284;-64
2023/08/09 09:55:33;;;;;;;;;17.00;16.33;;;;;;;;4844968;29;45157;-64
2023/08/09 09:57:59;;;;;;;;;7.00;6.00;;;;;;;;4844753;29;45409;-64
2023/08/09 10:00:25;;;;;;;;;7.00;5.67;;;;;;;;4844000;29;46913;-63
2023/08/09 10:02:52;;;;;;;;;6.00;6.00;;;;;;;;4844012;29;45918;-63
2023/08/09 10:05:20;;;;;;;;;4.00;4.00;;;;;;;;4844888;29;45366;-63
2023/08/09 10:07:47;;;;;;;;;3.33;3.33;;;;;;;;4844096;29;45400;-63
2023/08/09 10:10:13;;;;;;;;;4.67;4.67;;;;;;;;4841607;29;45805;-60
2023/08/09 10:12:40;;;;;;;;;5.67;3.67;;;;;;;;4843912;29;45262;-59
2023/08/09 10:15:06;;;;;;;;;4.67;4.67;;;;;;;;4844258;29;45435;-59
2023/08/09 10:17:33;;;;;;;;;3.67;3.00;;;;;;;;4844389;29;45357;-63
2023/08/09 10:19:59;;;;;;;;;2.67;2.67;;;;;;;;4843884;29;46728;-63
2023/08/09 10:22:25;;;;;;;;;3.33;3.33;;;;;;;;4843123;29;45378;-64
2023/08/09 10:24:51;;;;;;;;;1.67;1.67;;;;;;;;4844215;29;45356;-64
2023/08/09 10:27:35;;;;;;;;;2.00;2.00;;;;;;;;4844107;29;45336;-64
2023/08/09 10:30:05;;;;;;;;;1.67;1.67;;;;;;;;4844103;29;45770;-64
2023/08/09 10:32:49;;;;;;;;;2.67;2.67;;;;;;;;4843679;29;45419;-63
2023/08/09 10:35:15;;;;;;;;;2.00;1.67;;;;;;;;4844349;29;45339;-64
2023/08/09 10:37:40;;;;;;;;;3.33;1.33;;;;;;;;4843972;29;45657;-64
2023/08/09 10:40:16;;;;;;;;;0.00;0.00;;;;;;;;4844179;29;45331;-64
2023/08/09 10:42:44;;;;;;;;;2.00;2.00;;;;;;;;4843647;29;45366;-64
2023/08/09 10:45:09;;;;;;;;;1.00;1.00;;;;;;;;4844044;29;45384;-64
2023/08/09 10:47:34;;;;;;;;;8.00;6.33;;;;;;;;4844065;29;45344;-64
2023/08/09 10:50:00;;;;;;;;;1.00;1.00;;;;;;;;4844124;29;46401;-64
2023/08/09 10:52:33;;;;;;;;;1.00;0.33;;;;;;;;4843615;29;45597;-64
2023/08/09 10:55:26;;;;;;;;;1.33;0.00;;;;;;;;4843833;29;45281;-64
2023/08/09 10:57:52;;;;;;;;;1.00;1.00;;;;;;;;4840899;29;45375;-64
2023/08/09 11:00:18;;;;;;;;;0.67;0.67;;;;;;;;4843870;29;45951;-64
2023/08/09 11:02:46;;;;;;;;;1.33;1.33;;;;;;;;4843693;29;45379;-64
2023/08/09 11:05:12;;;;;;;;;16.50;16.50;;;;;;;;4843620;29;45310;-64
2023/08/09 11:07:41;;;;;;;;;1.67;1.67;;;;;;;;4843628;29;45845;-64
2023/08/09 11:10:08;;;;;;;;;1.67;0.67;;;;;;;;4843726;29;46674;-64
2023/08/09 11:12:33;;;;;;;;;0.33;0.33;;;;;;;;4843724;29;45405;-64
2023/08/09 11:14:59;;;;;;;;;0.67;0.67;;;;;;;;4843473;29;45457;-64
2023/08/09 11:17:24;;;;;;;;;5.00;5.00;;;;;;;;4844228;29;45395;-64
2023/08/09 11:19:49;;;;;;;;;0.00;0.00;;;;;;;;4846144;29;46182;-64
2023/08/09 11:22:14;;;;;;;;;2.00;1.00;;;;;;;;4846989;29;45695;-64
2023/08/09 11:24:39;;;;;;;;;0.00;0.00;;;;;;;;4846457;29;45649;-64
2023/08/09 11:27:05;;;;;;;;;0.00;0.00;;;;;;;;4847199;29;45415;-64
2023/08/09 11:29:32;;;;;;;;;0.00;0.00;;;;;;;;4847031;29;46206;-64
2023/08/09 11:31:58;;;;;;;;;0.00;0.00;;;;;;;;4847051;29;45319;-64
2023/08/09 11:34:24;;;;;;;;;2.33;2.33;;;;;;;;4846540;29;45345;-64
2023/08/09 11:36:50;;;;;;;;;0.00;0.00;;;;;;;;4846896;29;45289;-64
2023/08/09 11:39:16;;;;;;;;;3.00;2.00;;;;;;;;4846392;29;46345;-64
2023/08/09 11:41:41;;;;;;;;;0.00;0.00;;;;;;;;4846571;29;45201;-64
2023/08/09 11:44:07;;;;;;;;;0.00;0.00;;;;;;;;4847173;29;45512;-64
2023/08/09 11:46:32;;;;;;;;;0.67;0.67;;;;;;;;4846383;29;45339;-64
2023/08/09 11:49:02;;;;;;;;;0.00;0.00;;;;;;;;4846902;29;46769;-64
2023/08/09 11:51:29;;;;;;;;;7.33;7.33;;;;;;;;4846628;29;45205;-64
2023/08/09 11:53:54;;;;;;;;;0.00;0.00;;;;;;;;4846518;29;45470;-64
2023/08/09 11:56:21;;;;;;;;;0.00;0.00;;;;;;;;4846322;29;45347;-64
2023/08/09 11:58:47;;;;;;;;;0.00;0.00;;;;;;;;4846374;29;46173;-64
2023/08/09 12:01:13;;;;;;;;;1.33;0.00;;;;;;;;4846614;29;45353;-63
2023/08/09 12:03:39;;;;;;;;;1.00;1.00;;;;;;;;4846456;29;45423;-64
2023/08/09 12:06:05;;;;;;;;;1.33;0.33;;;;;;;;4846646;29;45317;-63
2023/08/09 12:08:34;;;;;;;;;0.00;0.00;;;;;;;;4845243;29;46302;-63
2023/08/09 12:10:59;;;;;;;;;0.00;0.00;;;;;;;;4846349;29;45241;-63
2023/08/09 12:13:24;;;;;;;;;1.00;0.00;;;;;;;;4846607;29;45290;-64
2023/08/09 12:15:49;;;;;;;;;2.00;0.33;;;;;;;;4846633;29;45475;-63
2023/08/09 12:18:15;;;;;;;;;1.00;1.00;;;;;;;;4845730;29;46505;-63
2023/08/09 12:20:40;;;;;;;;;0.33;0.33;;;;;;;;4846083;29;45248;-63
2023/08/09 12:23:05;;;;;;;;;2.33;1.00;;;;;;;;4845952;29;45488;-64
2023/08/09 12:25:31;;;;;;;;;2.00;2.00;;;;;;;;4846527;29;45218;-64
2023/08/09 12:27:56;;;;;;;;;0.67;0.67;;;;;;;;4845428;29;46059;-63
2023/08/09 12:30:21;;;;;;;;;2.67;0.00;;;;;;;;4845772;29;45324;-64
2023/08/09 12:32:46;;;;;;;;;1.00;1.00;;;;;;;;4845930;29;45360;-64
2023/08/09 12:35:11;;;;;;;;;0.00;0.00;;;;;;;;4845850;29;45205;-64
2023/08/09 12:37:37;;;;;;;;;1.33;1.33;;;;;;;;4845776;29;45453;-64
2023/08/09 12:40:05;;;;;;;;;0.00;0.00;;;;;;;;4844980;29;45422;-60
2023/08/09 12:42:33;;;;;;;;;1.00;1.00;;;;;;;;4843027;29;46065;-59
2023/08/09 12:44:58;;;;;;;;;1.00;1.00;;;;;;;;4846091;29;45180;-60
2023/08/09 12:47:24;;;;;;;;;2.33;2.33;;;;;;;;4845196;29;45694;-61
2023/08/09 12:49:49;;;;;;;;;1.00;1.00;;;;;;;;4845337;29;45345;-60
2023/08/09 12:52:17;;;;;;;;;1.00;1.00;;;;;;;;4845482;29;45376;-60
2023/08/09 12:54:44;;;;;;;;;1.00;1.00;;;;;;;;4845064;29;45386;-59
2023/08/09 12:57:10;;;;;;;;;1.00;1.00;;;;;;;;4844929;29;45668;-61
2023/08/09 12:59:38;;;;;;;;;1.00;1.00;;;;;;;;4843694;29;45846;-62
2023/08/09 13:02:03;;;;;;;;;1.00;1.00;;;;;;;;4845020;29;45368;-63
2023/08/09 13:04:30;;;;;;;;;1.00;0.67;;;;;;;;4845526;29;45551;-63
2023/08/09 13:06:55;;;;;;;;;1.00;1.00;;;;;;;;4845053;29;45420;-63
2023/08/09 13:09:21;;;;;;;;;1.67;1.00;;;;;;;;4844710;29;45511;-63
2023/08/09 13:11:47;;;;;;;;;0.33;0.33;;;;;;;;4844446;29;45268;-61
2023/08/09 13:14:12;;;;;;;;;0.00;0.00;;;;;;;;4845311;29;45476;-61
2023/08/09 13:16:40;;;;;;;;;0.33;0.33;;;;;;;;4844716;29;45503;-64
2023/08/09 13:19:09;;;;;;;;;1.00;1.00;;;;;;;;4845199;29;45350;-64
2023/08/09 13:21:34;;;;;;;;;4.33;1.67;;;;;;;;4844726;29;45355;-64
2023/08/09 13:23:59;;;;;;;;;1.00;1.00;;;;;;;;4845302;29;45351;-64
2023/08/09 13:26:25;;;;;;;;;1.67;1.67;;;;;;;;4844892;29;45405;-64
2023/08/09 13:28:51;;;;;;;;;2.00;1.00;;;;;;;;4844909;29;45309;-64
2023/08/09 13:31:16;;;;;;;;;1.00;1.00;;;;;;;;4844845;29;45703;-64
2023/08/09 13:33:42;;;;;;;;;4.00;0.33;;;;;;;;4845117;29;45458;-64
2023/08/09 13:36:07;;;;;;;;;4.00;1.00;;;;;;;;4844935;29;46525;-64
2023/08/09 13:38:33;;;;;;;;;0.67;0.67;;;;;;;;4844864;29;45415;-64
2023/08/09 13:40:59;;;;;;;;;1.00;1.00;;;;;;;;4844375;29;45485;-64
2023/08/09 13:43:25;;;;;;;;;1.50;0.50;;;;;;;;4844807;29;45373;-64
2023/08/09 13:45:53;;;;;;;;;2.33;0.67;;;;;;;;4845003;29;46272;-64
2023/08/09 13:48:18;;;;;;;;;1.00;1.00;;;;;;;;4844834;29;45514;-64
2023/08/09 13:50:45;;;;;;;;;1.00;1.00;;;;;;;;4844937;29;45316;-64
2023/08/09 13:53:10;;;;;;;;;2.00;2.00;;;;;;;;4844938;29;45520;-64
2023/08/09 13:55:36;;;;;;;;;2.00;0.33;;;;;;;;4844825;29;45230;-64
2023/08/09 13:58:01;;;;;;;;;1.00;1.00;;;;;;;;4844820;29;45260;-64
2023/08/09 14:00:27;;;;;;;;;0.67;0.67;;;;;;;;4844723;29;45361;-64
2023/08/09 14:02:52;;;;;;;;;0.67;0.67;;;;;;;;4844413;29;45474;-64
2023/08/09 14:05:17;;;;;;;;;3.33;1.67;;;;;;;;4844852;29;46586;-64
2023/08/09 14:07:44;;;;;;;;;2.33;2.00;;;;;;;;4844605;29;45447;-64
2023/08/09 14:10:09;;;;;;;;;2.00;2.00;;;;;;;;4844817;29;45305;-64
2023/08/09 14:12:34;;;;;;;;;1.00;1.00;;;;;;;;4844155;29;45496;-64
2023/08/09 14:14:59;;;;;;;;;1.00;1.00;;;;;;;;4844311;29;46514;-64
2023/08/09 14:17:25;;;;;;;;;2.00;2.00;;;;;;;;4844725;29;45301;-64
2023/08/09 14:19:50;;;;;;;;;1.00;1.00;;;;;;;;4844548;29;45455;-64
2023/08/09 14:22:15;;;;;;;;;3.33;1.33;;;;;;;;4844702;29;45297;-64
2023/08/09 14:24:40;;;;;;;;;1.00;1.00;;;;;;;;4843747;29;46774;-64
2023/08/09 14:27:06;;;;;;;;;2.00;2.00;;;;;;;;4844413;29;45317;-64
2023/08/09 14:29:31;;;;;;;;;1.00;1.00;;;;;;;;4844805;29;45414;-65
2023/08/09 14:31:56;;;;;;;;;2.00;2.00;;;;;;;;4844740;29;45222;-64
2023/08/09 14:34:23;;;;;;;;;6.00;3.00;;;;;;;;4843924;29;45537;-64